sensor_id;sensor_type;location;lat;lon;timestamp;pressure;altitude;pressure_sealevel;temperature;humidity
46015;BME280;36844;51.898;-0.874;2023-02-15T00:00:01;101492.53;;;17.84;
46015;BME280;36844;51.898;-0.874;2023-02-15T00:02:26;101493.69;;;17.83;
46015;BME280;36844;51.898;-0.874;2023-02-15T00:04:51;101486.34;;;17.80;
46015;BME280;36844;51.898;-0.874;2023-02-15T00:07:18;101482.06;;;17.78;
46015;BME280;36844;51.898;-0.874;2023-02-15T00:09:47;101481.25;;;17.74;
46015;BME280;36844;51.898;-0.874;2023-02-15T00:12:12;101474.31;;;17.73;
46015;BME280;36844;51.898;-0.874;2023-02-15T00:14:38;101463.91;;;17.72;
46015;BME280;36844;51.898;-0.874;2023-02-15T00:17:03;101459.28;;;17.69;
46015;BME280;36844;51.898;-0.874;2023-02-15T00:19:28;101446.16;;;17.67;
46015;BME280;36844;51.898;-0.874;2023-02-15T00:21:54;101451.16;;;17.65;
46015;BME280;36844;51.898;-0.874;2023-02-15T00:24:19;101446.13;;;17.64;
46015;BME280;36844;51.898;-0.874;2023-02-15T00:26:45;101447.63;;;17.61;
46015;BME280;36844;51.898;-0.874;2023-02-15T00:29:14;101446.06;;;17.60;
46015;BME280;36844;51.898;-0.874;2023-02-15T00:31:40;101448.38;;;17.58;
46015;BME280;36844;51.898;-0.874;2023-02-15T00:34:06;101439.88;;;17.56;
46015;BME280;36844;51.898;-0.874;2023-02-15T00:36:32;101432.16;;;17.55;
46015;BME280;36844;51.898;-0.874;2023-02-15T00:38:57;101424.44;;;17.53;
46015;BME280;36844;51.898;-0.874;2023-02-15T00:41:23;101423.28;;;17.51;
46015;BME280;36844;51.898;-0.874;2023-02-15T00:43:48;101422.50;;;17.50;
46015;BME280;36844;51.898;-0.874;2023-02-15T00:46:13;101422.06;;;17.48;
46015;BME280;36844;51.898;-0.874;2023-02-15T00:48:38;101420.13;;;17.45;
46015;BME280;36844;51.898;-0.874;2023-02-15T00:51:04;101411.66;;;17.43;
46015;BME280;36844;51.898;-0.874;2023-02-15T00:53:29;101410.88;;;17.43;
46015;BME280;36844;51.898;-0.874;2023-02-15T00:55:54;101411.59;;;17.40;
46015;BME280;36844;51.898;-0.874;2023-02-15T00:58:20;101410.03;;;17.39;
46015;BME280;36844;51.898;-0.874;2023-02-15T01:00:46;101407.69;;;17.37;
46015;BME280;36844;51.898;-0.874;2023-02-15T01:03:11;101398.44;;;17.35;
46015;BME280;36844;51.898;-0.874;2023-02-15T01:05:37;101398.78;;;17.33;
46015;BME280;36844;51.898;-0.874;2023-02-15T01:08:03;101397.25;;;17.32;
46015;BME280;36844;51.898;-0.874;2023-02-15T01:10:28;101402.22;;;17.30;
46015;BME280;36844;51.898;-0.874;2023-02-15T01:12:54;101392.59;;;17.29;
46015;BME280;36844;51.898;-0.874;2023-02-15T01:15:20;101384.91;;;17.28;
46015;BME280;36844;51.898;-0.874;2023-02-15T01:17:45;101378.31;;;17.25;
46015;BME280;36844;51.898;-0.874;2023-02-15T01:20:16;101374.84;;;17.25;
46015;BME280;36844;51.898;-0.874;2023-02-15T01:22:42;101369.84;;;17.23;
46015;BME280;36844;51.898;-0.874;2023-02-15T01:25:07;101365.59;;;17.22;
46015;BME280;36844;51.898;-0.874;2023-02-15T01:27:32;101370.59;;;17.20;
46015;BME280;36844;51.898;-0.874;2023-02-15T01:29:57;101362.84;;;17.19;
46015;BME280;36844;51.898;-0.874;2023-02-15T01:32:23;101362.47;;;17.17;
46015;BME280;36844;51.898;-0.874;2023-02-15T01:34:48;101359.00;;;17.16;
46015;BME280;36844;51.898;-0.874;2023-02-15T01:37:13;101350.47;;;17.14;
46015;BME280;36844;51.898;-0.874;2023-02-15T01:39:38;101349.72;;;17.14;
46015;BME280;36844;51.898;-0.874;2023-02-15T01:42:04;101343.16;;;17.11;
46015;BME280;36844;51.898;-0.874;2023-02-15T01:47:15;101339.63;;;17.07;
46015;BME280;36844;51.898;-0.874;2023-02-15T01:49:40;101334.25;;;17.07;
46015;BME280;36844;51.898;-0.874;2023-02-15T01:52:08;101330.41;;;17.05;
46015;BME280;36844;51.898;-0.874;2023-02-15T01:54:34;101328.03;;;17.03;
46015;BME280;36844;51.898;-0.874;2023-02-15T01:57:05;101328.41;;;17.02;
46015;BME280;36844;51.898;-0.874;2023-02-15T01:59:33;101328.78;;;17.00;
46015;BME280;36844;51.898;-0.874;2023-02-15T02:02:01;101328.78;;;17.00;
46015;BME280;36844;51.898;-0.874;2023-02-15T02:07:08;101333.34;;;16.96;
46015;BME280;36844;51.898;-0.874;2023-02-15T02:09:34;101331.78;;;16.95;
46015;BME280;36844;51.898;-0.874;2023-02-15T02:12:00;101323.31;;;16.93;
46015;BME280;36844;51.898;-0.874;2023-02-15T02:14:26;101328.72;;;16.93;
46015;BME280;36844;51.898;-0.874;2023-02-15T02:17:07;101322.91;;;16.91;
46015;BME280;36844;51.898;-0.874;2023-02-15T02:27:39;101309.34;;;16.84;
46015;BME280;36844;51.898;-0.874;2023-02-15T02:32:52;101303.59;;;16.82;
46015;BME280;36844;51.898;-0.874;2023-02-15T02:35:35;101308.19;;;16.82;
46015;BME280;36844;51.898;-0.874;2023-02-15T02:41:26;101295.81;;;16.77;
46015;BME280;36844;51.898;-0.874;2023-02-15T02:46:00;101295.41;;;16.75;
46015;BME280;36844;51.898;-0.874;2023-02-15T02:48:28;101293.88;;;16.74;
46015;BME280;36844;51.898;-0.874;2023-02-15T02:50:54;101289.63;;;16.73;
46015;BME280;36844;51.898;-0.874;2023-02-15T02:53:19;101288.06;;;16.72;
46015;BME280;36844;51.898;-0.874;2023-02-15T02:55:49;101284.59;;;16.71;
46015;BME280;36844;51.898;-0.874;2023-02-15T02:58:33;101271.53;;;16.70;
46015;BME280;36844;51.898;-0.874;2023-02-15T03:01:02;101269.19;;;16.68;
46015;BME280;36844;51.898;-0.874;2023-02-15T03:05:57;101264.16;;;16.67;
46015;BME280;36844;51.898;-0.874;2023-02-15T03:08:25;101265.31;;;16.66;
46015;BME280;36844;51.898;-0.874;2023-02-15T03:10:53;101259.16;;;16.65;
46015;BME280;36844;51.898;-0.874;2023-02-15T03:13:19;101255.31;;;16.63;
46015;BME280;36844;51.898;-0.874;2023-02-15T03:15:45;101247.25;;;16.63;
46015;BME280;36844;51.898;-0.874;2023-02-15T03:18:37;101240.66;;;16.60;
46015;BME280;36844;51.898;-0.874;2023-02-15T03:21:03;101228.34;;;16.59;
46015;BME280;36844;51.898;-0.874;2023-02-15T03:23:30;101227.59;;;16.59;
46015;BME280;36844;51.898;-0.874;2023-02-15T03:25:57;101223.34;;;16.58;
46015;BME280;36844;51.898;-0.874;2023-02-15T03:28:27;101217.97;;;16.58;
46015;BME280;36844;51.898;-0.874;2023-02-15T03:30:55;101213.31;;;16.55;
46015;BME280;36844;51.898;-0.874;2023-02-15T03:33:21;101205.25;;;16.55;
46015;BME280;36844;51.898;-0.874;2023-02-15T03:35:49;101196.75;;;16.53;
46015;BME280;36844;51.898;-0.874;2023-02-15T03:38:17;101202.13;;;16.53;
46015;BME280;36844;51.898;-0.874;2023-02-15T03:40:44;101197.91;;;16.52;
46015;BME280;36844;51.898;-0.874;2023-02-15T03:48:39;101191.31;;;16.49;
46015;BME280;36844;51.898;-0.874;2023-02-15T03:51:08;101190.94;;;16.47;
46015;BME280;36844;51.898;-0.874;2023-02-15T03:53:52;101193.97;;;16.46;
46015;BME280;36844;51.898;-0.874;2023-02-15T03:56:19;101197.81;;;16.45;
46015;BME280;36844;51.898;-0.874;2023-02-15T03:58:44;101185.50;;;16.44;
46015;BME280;36844;51.898;-0.874;2023-02-15T04:01:33;101193.94;;;16.42;
46015;BME280;36844;51.898;-0.874;2023-02-15T04:04:19;101184.31;;;16.41;
46015;BME280;36844;51.898;-0.874;2023-02-15T04:06:45;101193.16;;;16.42;
46015;BME280;36844;51.898;-0.874;2023-02-15T04:09:11;101193.53;;;16.40;
46015;BME280;36844;51.898;-0.874;2023-02-15T04:11:55;101194.69;;;16.39;
46015;BME280;36844;51.898;-0.874;2023-02-15T04:14:20;101190.44;;;16.38;
46015;BME280;36844;51.898;-0.874;2023-02-15T04:17:05;101192.69;;;16.36;
46015;BME280;36844;51.898;-0.874;2023-02-15T04:19:30;101185.78;;;16.35;
46015;BME280;36844;51.898;-0.874;2023-02-15T04:22:14;101176.16;;;16.34;
46015;BME280;36844;51.898;-0.874;2023-02-15T04:24:58;101172.69;;;16.34;
46015;BME280;36844;51.898;-0.874;2023-02-15T04:27:39;101171.16;;;16.33;
46015;BME280;36844;51.898;-0.874;2023-02-15T04:30:05;101162.31;;;16.32;
46015;BME280;36844;51.898;-0.874;2023-02-15T04:32:31;101168.84;;;16.31;
46015;BME280;36844;51.898;-0.874;2023-02-15T04:34:56;101168.06;;;16.31;
46015;BME280;36844;51.898;-0.874;2023-02-15T04:37:21;101167.28;;;16.30;
46015;BME280;36844;51.898;-0.874;2023-02-15T04:39:47;101171.88;;;16.30;
46015;BME280;36844;51.898;-0.874;2023-02-15T04:42:12;101166.09;;;16.28;
46015;BME280;36844;51.898;-0.874;2023-02-15T04:44:37;101156.13;;;16.28;
46015;BME280;36844;51.898;-0.874;2023-02-15T04:47:02;101151.09;;;16.27;
46015;BME280;36844;51.898;-0.874;2023-02-15T04:49:28;101159.94;;;16.27;
46015;BME280;36844;51.898;-0.874;2023-02-15T04:51:53;101156.84;;;16.25;
46015;BME280;36844;51.898;-0.874;2023-02-15T04:54:18;101148.00;;;16.25;
46015;BME280;36844;51.898;-0.874;2023-02-15T04:56:43;101154.53;;;16.24;
46015;BME280;36844;51.898;-0.874;2023-02-15T04:59:12;101139.53;;;16.23;
46015;BME280;36844;51.898;-0.874;2023-02-15T05:01:37;101140.66;;;16.22;
46015;BME280;36844;51.898;-0.874;2023-02-15T05:04:03;101142.59;;;16.21;
46015;BME280;36844;51.898;-0.874;2023-02-15T05:06:28;101137.22;;;16.21;
46015;BME280;36844;51.898;-0.874;2023-02-15T05:08:53;101141.06;;;16.20;
46015;BME280;36844;51.898;-0.874;2023-02-15T05:11:18;101132.22;;;16.20;
46015;BME280;36844;51.898;-0.874;2023-02-15T05:13:44;101127.19;;;16.18;
46015;BME280;36844;51.898;-0.874;2023-02-15T05:16:09;101129.09;;;16.18;
46015;BME280;36844;51.898;-0.874;2023-02-15T05:18:34;101127.56;;;16.17;
46015;BME280;36844;51.898;-0.874;2023-02-15T05:20:59;101123.31;;;16.16;
46015;BME280;36844;51.898;-0.874;2023-02-15T05:23:25;101132.94;;;16.17;
46015;BME280;36844;51.898;-0.874;2023-02-15T05:25:50;101119.06;;;16.15;
46015;BME280;36844;51.898;-0.874;2023-02-15T05:28:34;101113.31;;;16.13;
46015;BME280;36844;51.898;-0.874;2023-02-15T05:33:25;101111.75;;;16.12;
46015;BME280;36844;51.898;-0.874;2023-02-15T05:35:50;101108.28;;;16.11;
46015;BME280;36844;51.898;-0.874;2023-02-15T05:38:16;101107.50;;;16.11;
46015;BME280;36844;51.898;-0.874;2023-02-15T05:40:41;101103.28;;;16.10;
46015;BME280;36844;51.898;-0.874;2023-02-15T05:43:06;101108.66;;;16.10;
46015;BME280;36844;51.898;-0.874;2023-02-15T05:45:31;101097.16;;;16.09;
46015;BME280;36844;51.898;-0.874;2023-02-15T05:47:57;101100.19;;;16.08;
46015;BME280;36844;51.898;-0.874;2023-02-15T05:50:23;101104.00;;;16.07;
46015;BME280;36844;51.898;-0.874;2023-02-15T05:52:49;101094.03;;;16.07;
46015;BME280;36844;51.898;-0.874;2023-02-15T05:55:14;101097.84;;;16.06;
46015;BME280;36844;51.898;-0.874;2023-02-15T05:57:39;101106.31;;;16.05;
46015;BME280;36844;51.898;-0.874;2023-02-15T06:00:05;101099.38;;;16.04;
46015;BME280;36844;51.898;-0.874;2023-02-15T06:02:36;101098.59;;;16.03;
46015;BME280;36844;51.898;-0.874;2023-02-15T06:05:02;101104.75;;;16.04;
46015;BME280;36844;51.898;-0.874;2023-02-15T06:07:28;101096.25;;;16.02;
46015;BME280;36844;51.898;-0.874;2023-02-15T06:09:53;101100.88;;;16.01;
46015;BME280;36844;51.898;-0.874;2023-02-15T06:12:18;101104.69;;;16.00;
46015;BME280;36844;51.898;-0.874;2023-02-15T06:14:43;101103.91;;;16.00;
46015;BME280;36844;51.898;-0.874;2023-02-15T06:17:09;101096.97;;;15.99;
46015;BME280;36844;51.898;-0.874;2023-02-15T06:19:34;101093.50;;;15.98;
46015;BME280;36844;51.898;-0.874;2023-02-15T06:21:59;101090.06;;;15.98;
46015;BME280;36844;51.898;-0.874;2023-02-15T06:24:24;101088.53;;;15.97;
46015;BME280;36844;51.898;-0.874;2023-02-15T06:26:50;101098.50;;;15.96;
46015;BME280;36844;51.898;-0.874;2023-02-15T06:29:15;101103.09;;;15.96;
46015;BME280;36844;51.898;-0.874;2023-02-15T06:31:40;101109.59;;;15.95;
46015;BME280;36844;51.898;-0.874;2023-02-15T06:34:05;101103.44;;;15.94;
46015;BME280;36844;51.898;-0.874;2023-02-15T06:36:31;101102.72;;;15.94;
46015;BME280;36844;51.898;-0.874;2023-02-15T06:38:56;101109.19;;;15.93;
46015;BME280;36844;51.898;-0.874;2023-02-15T06:41:22;101119.94;;;15.93;
46015;BME280;36844;51.898;-0.874;2023-02-15T06:43:47;101122.97;;;15.91;
46015;BME280;36844;51.898;-0.874;2023-02-15T06:46:13;101122.19;;;15.90;
46015;BME280;36844;51.898;-0.874;2023-02-15T06:48:38;101123.38;;;15.90;
46015;BME280;36844;51.898;-0.874;2023-02-15T06:51:03;101114.53;;;15.89;
46015;BME280;36844;51.898;-0.874;2023-02-15T06:53:28;101118.00;;;15.90;
46015;BME280;36844;51.898;-0.874;2023-02-15T06:56:00;101125.28;;;15.89;
46015;BME280;36844;51.898;-0.874;2023-02-15T06:58:25;101131.44;;;15.90;
46015;BME280;36844;51.898;-0.874;2023-02-15T07:00:51;101129.47;;;15.90;
46015;BME280;36844;51.898;-0.874;2023-02-15T07:03:16;101142.56;;;15.92;
46015;BME280;36844;51.898;-0.874;2023-02-15T07:05:41;101149.84;;;15.91;
46015;BME280;36844;51.898;-0.874;2023-02-15T07:08:08;101145.69;;;15.94;
46015;BME280;36844;51.898;-0.874;2023-02-15T07:10:33;101148.38;;;15.94;
46015;BME280;36844;51.898;-0.874;2023-02-15T07:13:00;101152.22;;;15.96;
46015;BME280;36844;51.898;-0.874;2023-02-15T07:15:25;101159.91;;;15.98;
46015;BME280;36844;51.898;-0.874;2023-02-15T07:17:51;101157.66;;;16.00;
46015;BME280;36844;51.898;-0.874;2023-02-15T07:20:17;101155.38;;;16.02;
46015;BME280;36844;51.898;-0.874;2023-02-15T07:22:43;101142.34;;;16.04;
46015;BME280;36844;51.898;-0.874;2023-02-15T07:25:09;101155.03;;;16.07;
46015;BME280;36844;51.898;-0.874;2023-02-15T07:27:35;101140.91;;;16.10;
46015;BME280;36844;51.898;-0.874;2023-02-15T07:30:00;101148.25;;;16.13;
46015;BME280;36844;51.898;-0.874;2023-02-15T07:32:29;101141.34;;;16.15;
46015;BME280;36844;51.898;-0.874;2023-02-15T07:34:54;101141.66;;;16.10;
46015;BME280;36844;51.898;-0.874;2023-02-15T07:37:20;101148.06;;;16.02;
46015;BME280;36844;51.898;-0.874;2023-02-15T07:39:45;101146.41;;;15.94;
46015;BME280;36844;51.898;-0.874;2023-02-15T07:42:11;101140.91;;;15.83;
46015;BME280;36844;51.898;-0.874;2023-02-15T07:44:36;101148.44;;;15.74;
46015;BME280;36844;51.898;-0.874;2023-02-15T07:47:01;101138.31;;;15.64;
46015;BME280;36844;51.898;-0.874;2023-02-15T07:49:26;101143.19;;;15.55;
46015;BME280;36844;51.898;-0.874;2023-02-15T07:51:51;101145.03;;;15.51;
46015;BME280;36844;51.898;-0.874;2023-02-15T07:54:17;101138.88;;;15.51;
46015;BME280;36844;51.898;-0.874;2023-02-15T07:56:42;101148.53;;;15.55;
46015;BME280;36844;51.898;-0.874;2023-02-15T07:59:08;101151.69;;;15.61;
46015;BME280;36844;51.898;-0.874;2023-02-15T08:01:35;101146.78;;;15.66;
46015;BME280;36844;51.898;-0.874;2023-02-15T08:04:00;101154.19;;;15.73;
46015;BME280;36844;51.898;-0.874;2023-02-15T08:06:27;101162.34;;;15.80;
46015;BME280;36844;51.898;-0.874;2023-02-15T08:08:52;101149.78;;;15.87;
46015;BME280;36844;51.898;-0.874;2023-02-15T08:14:05;101139.66;;;16.04;
46015;BME280;36844;51.898;-0.874;2023-02-15T08:18:57;101141.06;;;16.20;
46015;BME280;36844;51.898;-0.874;2023-02-15T08:21:23;101143.44;;;16.29;
46015;BME280;36844;51.898;-0.874;2023-02-15T08:23:49;101135.50;;;16.36;
46015;BME280;36844;51.898;-0.874;2023-02-15T08:26:14;101134.41;;;16.44;
46015;BME280;36844;51.898;-0.874;2023-02-15T08:28:41;101134.53;;;16.51;
46015;BME280;36844;51.898;-0.874;2023-02-15T08:31:07;101128.09;;;16.59;
46015;BME280;36844;51.898;-0.874;2023-02-15T08:33:33;101128.50;;;16.64;
46015;BME280;36844;51.898;-0.874;2023-02-15T08:36:02;101130.50;;;16.71;
46015;BME280;36844;51.898;-0.874;2023-02-15T08:38:27;101127.13;;;16.77;
46015;BME280;36844;51.898;-0.874;2023-02-15T08:40:52;101123.72;;;16.84;
46015;BME280;36844;51.898;-0.874;2023-02-15T08:43:17;101124.94;;;16.90;
46015;BME280;36844;51.898;-0.874;2023-02-15T08:45:43;101119.59;;;16.94;
46015;BME280;36844;51.898;-0.874;2023-02-15T08:48:08;101117.31;;;16.99;
46015;BME280;36844;51.898;-0.874;2023-02-15T08:50:33;101114.66;;;17.03;
46015;BME280;36844;51.898;-0.874;2023-02-15T08:52:59;101102.78;;;17.07;
46015;BME280;36844;51.898;-0.874;2023-02-15T08:55:24;101108.97;;;17.11;
46015;BME280;36844;51.898;-0.874;2023-02-15T08:57:49;101099.78;;;17.12;
46015;BME280;36844;51.898;-0.874;2023-02-15T09:00:14;101087.13;;;17.16;
46015;BME280;36844;51.898;-0.874;2023-02-15T09:02:40;101090.19;;;17.18;
46015;BME280;36844;51.898;-0.874;2023-02-15T09:05:05;101088.69;;;17.21;
46015;BME280;36844;51.898;-0.874;2023-02-15T09:07:31;101082.13;;;17.22;
46015;BME280;36844;51.898;-0.874;2023-02-15T09:09:56;101091.78;;;17.23;
46015;BME280;36844;51.898;-0.874;2023-02-15T09:12:21;101088.72;;;17.24;
46015;BME280;36844;51.898;-0.874;2023-02-15T09:14:46;101080.66;;;17.24;
46015;BME280;36844;51.898;-0.874;2023-02-15T09:17:11;101086.03;;;17.24;
46015;BME280;36844;51.898;-0.874;2023-02-15T09:19:37;101087.53;;;17.25;
46015;BME280;36844;51.898;-0.874;2023-02-15T09:22:02;101091.41;;;17.24;
46015;BME280;36844;51.898;-0.874;2023-02-15T09:24:31;101088.72;;;17.24;
46015;BME280;36844;51.898;-0.874;2023-02-15T09:26:56;101087.94;;;17.24;
46015;BME280;36844;51.898;-0.874;2023-02-15T09:29:22;101083.69;;;17.23;
46015;BME280;36844;51.898;-0.874;2023-02-15T09:31:48;101084.81;;;17.22;
46015;BME280;36844;51.898;-0.874;2023-02-15T09:34:15;101089.47;;;17.21;
46015;BME280;36844;51.898;-0.874;2023-02-15T09:36:42;101084.44;;;17.20;
46015;BME280;36844;51.898;-0.874;2023-02-15T09:39:14;101087.91;;;17.17;
46015;BME280;36844;51.898;-0.874;2023-02-15T09:49:28;101096.66;;;17.10;
46015;BME280;36844;51.898;-0.874;2023-02-15T09:54:33;101094.72;;;17.07;
46015;BME280;36844;51.898;-0.874;2023-02-15T09:57:06;101101.25;;;17.06;
46015;BME280;36844;51.898;-0.874;2023-02-15T10:04:57;101102.34;;;17.02;
46015;BME280;36844;51.898;-0.874;2023-02-15T10:12:48;101098.09;;;16.97;
46015;BME280;36844;51.898;-0.874;2023-02-15T10:25:39;101094.22;;;16.91;
46015;BME280;36844;51.898;-0.874;2023-02-15T10:28:09;101092.66;;;16.90;
46015;BME280;36844;51.898;-0.874;2023-02-15T10:30:42;101087.25;;;16.90;
46015;BME280;36844;51.898;-0.874;2023-02-15T10:33:33;101080.34;;;16.89;
46015;BME280;36844;51.898;-0.874;2023-02-15T10:36:04;101078.00;;;16.88;
46015;BME280;36844;51.898;-0.874;2023-02-15T11:07:21;101051.81;;;16.77;
46015;BME280;36844;51.898;-0.874;2023-02-15T11:10:01;101052.59;;;16.78;
46015;BME280;36844;51.898;-0.874;2023-02-15T11:12:30;101039.88;;;16.78;
46015;BME280;36844;51.898;-0.874;2023-02-15T11:15:03;101043.34;;;16.79;
46015;BME280;36844;51.898;-0.874;2023-02-15T11:17:35;101040.28;;;16.80;
46015;BME280;36844;51.898;-0.874;2023-02-15T11:22:30;101036.81;;;16.80;
46015;BME280;36844;51.898;-0.874;2023-02-15T11:24:56;101039.16;;;16.82;
46015;BME280;36844;51.898;-0.874;2023-02-15T11:27:27;101045.31;;;16.82;
46015;BME280;36844;51.898;-0.874;2023-02-15T11:32:23;101037.25;;;16.82;
46015;BME280;36844;51.898;-0.874;2023-02-15T11:34:54;101037.63;;;16.84;
46015;BME280;36844;51.898;-0.874;2023-02-15T11:37:20;101025.34;;;16.83;
46015;BME280;36844;51.898;-0.874;2023-02-15T11:39:49;101025.72;;;16.85;
46015;BME280;36844;51.898;-0.874;2023-02-15T11:42:18;101020.34;;;16.85;
46015;BME280;36844;51.898;-0.874;2023-02-15T11:47:13;101021.13;;;16.86;
46015;BME280;36844;51.898;-0.874;2023-02-15T11:49:38;101023.44;;;16.87;
46015;BME280;36844;51.898;-0.874;2023-02-15T11:52:10;101023.44;;;16.87;
46015;BME280;36844;51.898;-0.874;2023-02-15T11:54:36;101024.97;;;16.88;
46015;BME280;36844;51.898;-0.874;2023-02-15T11:57:14;101023.44;;;16.87;
46015;BME280;36844;51.898;-0.874;2023-02-15T11:59:42;101021.50;;;16.88;
46015;BME280;36844;51.898;-0.874;2023-02-15T12:02:19;101024.97;;;16.88;
46015;BME280;36844;51.898;-0.874;2023-02-15T12:04:52;101032.25;;;16.88;
46015;BME280;36844;51.898;-0.874;2023-02-15T12:09:56;101021.16;;;16.89;
46015;BME280;36844;51.898;-0.874;2023-02-15T12:12:28;101031.13;;;16.89;
46015;BME280;36844;51.898;-0.874;2023-02-15T12:14:55;101022.28;;;16.88;
46015;BME280;36844;51.898;-0.874;2023-02-15T12:17:21;101026.53;;;16.89;
46015;BME280;36844;51.898;-0.874;2023-02-15T12:19:47;101016.91;;;16.88;
46015;BME280;36844;51.898;-0.874;2023-02-15T12:22:25;101015.00;;;16.89;
46015;BME280;36844;51.898;-0.874;2023-02-15T12:24:56;101009.63;;;16.89;
46015;BME280;36844;51.898;-0.874;2023-02-15T12:27:32;101014.63;;;16.90;
46015;BME280;36844;51.898;-0.874;2023-02-15T12:30:00;101009.22;;;16.90;
46015;BME280;36844;51.898;-0.874;2023-02-15T12:32:31;101012.31;;;16.92;
46015;BME280;36844;51.898;-0.874;2023-02-15T12:35:02;101011.19;;;16.93;
46015;BME280;36844;51.898;-0.874;2023-02-15T12:37:32;101008.13;;;16.95;
46015;BME280;36844;51.898;-0.874;2023-02-15T12:40:00;101009.31;;;16.97;
46015;BME280;36844;51.898;-0.874;2023-02-15T12:42:27;101013.16;;;17.00;
46015;BME280;36844;51.898;-0.874;2023-02-15T12:47:19;101002.41;;;17.03;
46015;BME280;36844;51.898;-0.874;2023-02-15T12:49:44;100994.75;;;17.05;
46015;BME280;36844;51.898;-0.874;2023-02-15T12:52:28;100998.22;;;17.09;
46015;BME280;36844;51.898;-0.874;2023-02-15T12:54:53;100995.59;;;17.13;
46015;BME280;36844;51.898;-0.874;2023-02-15T13:02:57;100992.94;;;17.23;
46015;BME280;36844;51.898;-0.874;2023-02-15T13:07:50;100992.97;;;17.30;
46015;BME280;36844;51.898;-0.874;2023-02-15T13:10:23;100999.50;;;17.33;
46015;BME280;36844;51.898;-0.874;2023-02-15T13:12:49;100996.13;;;17.36;
46015;BME280;36844;51.898;-0.874;2023-02-15T13:15:26;100994.56;;;17.38;
46015;BME280;36844;51.898;-0.874;2023-02-15T13:17:52;100994.59;;;17.42;
46015;BME280;36844;51.898;-0.874;2023-02-15T13:20:18;100988.84;;;17.43;
46015;BME280;36844;51.898;-0.874;2023-02-15T13:22:46;100986.16;;;17.47;
46015;BME280;36844;51.898;-0.874;2023-02-15T13:25:19;100977.69;;;17.48;
46015;BME280;36844;51.898;-0.874;2023-02-15T13:27:46;100981.94;;;17.49;
46015;BME280;36844;51.898;-0.874;2023-02-15T13:30:19;100986.53;;;17.52;
46015;BME280;36844;51.898;-0.874;2023-02-15T13:32:48;100977.69;;;17.55;
46015;BME280;36844;51.898;-0.874;2023-02-15T13:35:15;100970.41;;;17.56;
46015;BME280;36844;51.898;-0.874;2023-02-15T13:42:54;100961.56;;;17.59;
46015;BME280;36844;51.898;-0.874;2023-02-15T13:55:31;100946.97;;;17.63;
46015;BME280;36844;51.898;-0.874;2023-02-15T14:16:04;100924.63;;;17.63;
46015;BME280;36844;51.898;-0.874;2023-02-15T14:18:35;100934.25;;;17.64;
46015;BME280;36844;51.898;-0.874;2023-02-15T14:21:06;100928.88;;;17.64;
46015;BME280;36844;51.898;-0.874;2023-02-15T14:28:53;100940.78;;;17.63;
46015;BME280;36844;51.898;-0.874;2023-02-15T14:31:25;100934.66;;;17.62;
46015;BME280;36844;51.898;-0.874;2023-02-15T14:33:53;100926.56;;;17.62;
46015;BME280;36844;51.898;-0.874;2023-02-15T14:36:19;100929.25;;;17.62;
46015;BME280;36844;51.898;-0.874;2023-02-15T14:38:51;100927.72;;;17.61;
46015;BME280;36844;51.898;-0.874;2023-02-15T14:41:21;100918.88;;;17.61;
46015;BME280;36844;51.898;-0.874;2023-02-15T14:44:08;100920.78;;;17.60;
46015;BME280;36844;51.898;-0.874;2023-02-15T14:49:06;100928.50;;;17.58;
46015;BME280;36844;51.898;-0.874;2023-02-15T14:56:42;100920.38;;;17.55;
46015;BME280;36844;51.898;-0.874;2023-02-15T14:59:21;100933.84;;;17.55;
46015;BME280;36844;51.898;-0.874;2023-02-15T15:04:34;100923.81;;;17.52;
46015;BME280;36844;51.898;-0.874;2023-02-15T15:09:45;100926.50;;;17.48;
46015;BME280;36844;51.898;-0.874;2023-02-15T15:12:18;100929.97;;;17.49;
46015;BME280;36844;51.898;-0.874;2023-02-15T15:15:00;100941.16;;;17.47;
46015;BME280;36844;51.898;-0.874;2023-02-15T15:22:43;100924.22;;;17.43;
46015;BME280;36844;51.898;-0.874;2023-02-15T15:47:57;100929.50;;;17.33;
46015;BME280;36844;51.898;-0.874;2023-02-15T15:50:25;100929.16;;;17.31;
46015;BME280;36844;51.898;-0.874;2023-02-15T15:52:52;100933.75;;;17.30;
46015;BME280;36844;51.898;-0.874;2023-02-15T15:55:27;100927.59;;;17.30;
46015;BME280;36844;51.898;-0.874;2023-02-15T15:57:59;100932.19;;;17.29;
46015;BME280;36844;51.898;-0.874;2023-02-15T16:02:51;100922.97;;;17.27;
46015;BME280;36844;51.898;-0.874;2023-02-15T16:05:16;100919.50;;;17.26;
46015;BME280;36844;51.898;-0.874;2023-02-15T16:07:41;100922.56;;;17.25;
46015;BME280;36844;51.898;-0.874;2023-02-15T16:10:16;100921.41;;;17.22;
46015;BME280;36844;51.898;-0.874;2023-02-15T16:12:45;100922.19;;;17.23;
46015;BME280;36844;51.898;-0.874;2023-02-15T16:15:14;100922.56;;;17.21;
46015;BME280;36844;51.898;-0.874;2023-02-15T16:17:40;100924.47;;;17.21;
46015;BME280;36844;51.898;-0.874;2023-02-15T16:20:11;100911.41;;;17.19;
46015;BME280;36844;51.898;-0.874;2023-02-15T16:22:39;100916.78;;;17.19;
46015;BME280;36844;51.898;-0.874;2023-02-15T16:27:48;100914.84;;;17.16;
46015;BME280;36844;51.898;-0.874;2023-02-15T16:30:18;100917.13;;;17.14;
46015;BME280;36844;51.898;-0.874;2023-02-15T16:32:44;100913.69;;;17.14;
46015;BME280;36844;51.898;-0.874;2023-02-15T16:35:13;100916.75;;;17.12;
46015;BME280;36844;51.898;-0.874;2023-02-15T16:37:39;100908.69;;;17.12;
46015;BME280;36844;51.898;-0.874;2023-02-15T16:40:04;100914.41;;;17.11;
46015;BME280;36844;51.898;-0.874;2023-02-15T16:42:29;100908.25;;;17.10;
46015;BME280;36844;51.898;-0.874;2023-02-15T16:45:04;100917.50;;;17.09;
46015;BME280;36844;51.898;-0.874;2023-02-15T16:47:31;100907.50;;;17.10;
46015;BME280;36844;51.898;-0.874;2023-02-15T16:49:59;100912.09;;;17.09;
46015;BME280;36844;51.898;-0.874;2023-02-15T16:52:25;100919.03;;;17.10;
46015;BME280;36844;51.898;-0.874;2023-02-15T16:54:58;100918.28;;;17.10;
46015;BME280;36844;51.898;-0.874;2023-02-15T16:57:28;100914.41;;;17.11;